Time,TemperatureF,DewpointF,PressureIn,WindDirection,WindDirectionDegrees,WindSpeedMPH,WindSpeedGustMPH,Humidity,HourlyPrecipIn,Conditions,Clouds,dailyrainin,SoftwareType,DateUTC
2013-10-03 00:03:00,62.2,57.7,29.88,ENE,67,4.0,5.6,85,0.00,,,0.00,WUHU21623XXSP,2013-10-02 22:03:00,
2013-10-03 00:08:00,62.2,57.7,29.87,ENE,67,2.7,6.5,85,0.00,,,0.00,WUHU21623XXSP,2013-10-02 22:08:00,
2013-10-03 00:13:00,62.1,57.5,29.88,NE,45,2.2,6.5,85,0.00,,,0.00,WUHU21623XXSP,2013-10-02 22:13:00,
2013-10-03 00:18:00,61.9,57.7,29.88,ENE,67,5.1,6.0,86,0.00,,,0.00,WUHU21623XXSP,2013-10-02 22:18:00,
2013-10-03 00:23:00,61.7,57.5,29.87,ENE,67,4.9,6.0,86,0.00,,,0.00,WUHU21623XXSP,2013-10-02 22:23:00,
2013-10-03 00:28:00,61.5,57.3,29.87,ENE,67,2.9,4.9,86,0.00,,,0.00,WUHU21623XXSP,2013-10-02 22:28:00,
2013-10-03 00:33:00,61.5,57.3,29.88,East,90,2.0,4.5,86,0.00,,,0.00,WUHU21623XXSP,2013-10-02 22:33:00,
2013-10-03 00:38:00,61.5,57.6,29.88,ENE,67,2.5,3.6,87,0.00,,,0.00,WUHU21623XXSP,2013-10-02 22:38:00,
2013-10-03 00:43:00,61.5,57.6,29.88,ENE,67,4.9,5.8,87,0.00,,,0.00,WUHU21623XXSP,2013-10-02 22:43:00,
2013-10-03 00:48:00,61.3,57.5,29.88,ENE,67,2.2,5.8,87,0.00,,,0.00,WUHU21623XXSP,2013-10-02 22:48:00,
2013-10-03 00:53:00,61.3,57.5,29.87,ENE,67,2.5,4.3,87,0.00,,,0.00,WUHU21623XXSP,2013-10-02 22:53:00,
2013-10-03 00:58:00,61.2,57.3,29.87,ENE,67,5.1,5.1,87,0.00,,,0.00,WUHU21623XXSP,2013-10-02 22:58:00,
2013-10-03 01:03:00,61.2,57.3,29.87,ENE,67,2.7,5.1,87,0.00,,,0.00,WUHU21623XXSP,2013-10-02 23:03:00,
2013-10-03 01:08:00,61.0,57.4,29.87,NE,45,4.5,4.5,88,0.00,,,0.00,WUHU21623XXSP,2013-10-02 23:08:00,
2013-10-03 01:13:00,61.0,57.4,29.87,ENE,67,3.8,4.5,88,0.00,,,0.00,WUHU21623XXSP,2013-10-02 23:13:00,
2013-10-03 01:18:00,61.0,57.4,29.87,ESE,112,3.6,3.8,88,0.00,,,0.00,WUHU21623XXSP,2013-10-02 23:18:00,
2013-10-03 01:23:00,60.8,57.3,29.87,ENE,67,5.4,6.0,88,0.00,,,0.00,WUHU21623XXSP,2013-10-02 23:23:00,
2013-10-03 01:28:00,60.6,57.1,29.87,ENE,67,5.4,6.5,88,0.00,,,0.00,WUHU21623XXSP,2013-10-02 23:28:00,
2013-10-03 01:33:00,60.6,57.1,29.87,ENE,67,4.0,6.5,88,0.00,,,0.00,WUHU21623XXSP,2013-10-02 23:33:00,
2013-10-03 01:38:00,60.4,56.9,29.87,East,90,2.2,6.5,88,0.00,,,0.00,WUHU21623XXSP,2013-10-02 23:38:00,
2013-10-03 01:43:00,60.4,56.9,29.87,ESE,112,6.0,6.0,88,0.00,,,0.00,WUHU21623XXSP,2013-10-02 23:43:00,
2013-10-03 01:48:00,60.4,56.9,29.87,East,90,3.1,6.0,88,0.00,,,0.00,WUHU21623XXSP,2013-10-02 23:48:00,
2013-10-03 01:49:00,60.4,56.9,29.87,East,90,3.1,6.0,88,0.00,,,0.00,WUHU21623XXSP,2013-10-02 23:49:00,
2013-10-03 01:54:00,60.4,56.9,29.87,ENE,67,5.1,5.4,88,0.00,,,0.00,WUHU21623XXSP,2013-10-02 23:54:00,
2013-10-03 01:59:00,60.3,56.7,29.87,NE,45,1.6,7.4,88,0.00,,,0.00,WUHU21623XXSP,2013-10-02 23:59:00,
2013-10-03 02:04:00,60.1,56.6,29.87,ESE,112,5.8,7.4,88,0.00,,,0.00,WUHU21623XXSP,2013-10-03 00:04:00,
2013-10-03 02:09:00,60.3,56.7,29.87,ENE,67,3.4,6.7,88,0.00,,,0.00,WUHU21623XXSP,2013-10-03 00:09:00,
2013-10-03 02:14:00,60.3,56.7,29.87,East,90,7.6,7.6,88,0.00,,,0.00,WUHU21623XXSP,2013-10-03 00:14:00,
2013-10-03 02:19:00,60.1,56.6,29.87,East,90,3.1,7.6,88,0.00,,,0.00,WUHU21623XXSP,2013-10-03 00:19:00,
2013-10-03 02:24:00,60.1,56.6,29.87,NE,45,1.6,3.8,88,0.00,,,0.00,WUHU21623XXSP,2013-10-03 00:24:00,
2013-10-03 02:29:00,60.1,56.6,29.87,ENE,67,5.4,5.4,88,0.00,,,0.00,WUHU21623XXSP,2013-10-03 00:29:00,
2013-10-03 02:34:00,60.1,56.6,29.87,ESE,112,5.6,6.7,88,0.00,,,0.00,WUHU21623XXSP,2013-10-03 00:34:00,
2013-10-03 02:38:00,59.9,56.4,29.87,East,90,5.1,6.7,88,0.00,,,0.00,WUHU21623XXSP,2013-10-03 00:38:00,
2013-10-03 02:43:00,59.7,56.2,29.87,ENE,67,4.3,8.9,88,0.00,,,0.00,WUHU21623XXSP,2013-10-03 00:43:00,
2013-10-03 02:48:00,59.7,56.2,29.87,ENE,67,4.0,8.9,88,0.00,,,0.00,WUHU21623XXSP,2013-10-03 00:48:00,
2013-10-03 02:53:00,59.7,56.2,29.86,ENE,67,4.9,7.6,88,0.00,,,0.00,WUHU21623XXSP,2013-10-03 00:53:00,
2013-10-03 02:58:00,59.7,56.2,29.86,South,180,3.4,7.6,88,0.00,,,0.00,WUHU21623XXSP,2013-10-03 00:58:00,
2013-10-03 03:03:00,59.7,56.2,29.86,SE,135,2.7,5.8,88,0.00,,,0.00,WUHU21623XXSP,2013-10-03 01:03:00,
2013-10-03 03:08:00,59.4,55.8,29.86,ENE,67,5.1,5.1,88,0.00,,,0.00,WUHU21623XXSP,2013-10-03 01:08:00,
2013-10-03 03:13:00,59.2,55.7,29.86,ENE,67,5.1,5.1,88,0.00,,,0.00,WUHU21623XXSP,2013-10-03 01:13:00,
2013-10-03 03:18:00,59.0,55.5,29.86,ESE,112,0.9,5.8,88,0.00,,,0.00,WUHU21623XXSP,2013-10-03 01:18:00,
2013-10-03 03:23:00,58.8,55.3,29.85,ESE,112,8.9,8.9,88,0.00,,,0.00,WUHU21623XXSP,2013-10-03 01:23:00,
2013-10-03 03:28:00,58.8,55.3,29.85,ENE,67,1.8,8.9,88,0.00,,,0.00,WUHU21623XXSP,2013-10-03 01:28:00,
2013-10-03 03:33:00,58.8,55.3,29.85,East,90,5.1,6.3,88,0.00,,,0.00,WUHU21623XXSP,2013-10-03 01:33:00,
2013-10-03 03:38:00,58.8,55.3,29.86,ESE,112,2.9,5.1,88,0.00,,,0.00,WUHU21623XXSP,2013-10-03 01:38:00,
2013-10-03 03:43:00,58.8,55.3,29.85,NE,45,2.9,4.9,88,0.00,,,0.00,WUHU21623XXSP,2013-10-03 01:43:00,
2013-10-03 03:48:00,58.8,55.3,29.85,NE,45,2.7,4.9,88,0.00,,,0.00,WUHU21623XXSP,2013-10-03 01:48:00,
2013-10-03 03:53:00,58.8,55.3,29.85,ENE,67,4.5,5.4,88,0.00,,,0.00,WUHU21623XXSP,2013-10-03 01:53:00,
2013-10-03 03:58:00,58.8,55.3,29.85,ENE,67,3.6,5.4,88,0.00,,,0.00,WUHU21623XXSP,2013-10-03 01:58:00,
2013-10-03 04:03:00,58.8,55.3,29.85,ENE,67,3.1,5.1,88,0.00,,,0.00,WUHU21623XXSP,2013-10-03 02:03:00,
2013-10-03 04:05:00,58.8,55.3,29.85,ENE,67,6.7,6.7,88,0.00,,,0.00,WUHU21623XXSP,2013-10-03 02:05:00,
2013-10-03 04:10:00,58.8,55.3,29.85,ENE,67,2.7,6.7,88,0.00,,,0.00,WUHU21623XXSP,2013-10-03 02:10:00,
2013-10-03 04:15:00,58.8,55.3,29.85,East,90,2.2,6.9,88,0.00,,,0.00,WUHU21623XXSP,2013-10-03 02:15:00,
2013-10-03 04:20:00,58.8,55.3,29.85,ENE,67,5.6,6.9,88,0.00,,,0.00,WUHU21623XXSP,2013-10-03 02:20:00,
2013-10-03 04:25:00,58.8,55.3,29.85,NE,45,3.8,5.6,88,0.00,,,0.00,WUHU21623XXSP,2013-10-03 02:25:00,
2013-10-03 04:30:00,58.8,55.3,29.85,ESE,112,5.4,9.2,88,0.00,,,0.00,WUHU21623XXSP,2013-10-03 02:30:00,
2013-10-03 04:35:00,58.8,55.3,29.84,North,0,5.1,9.2,88,0.00,,,0.00,WUHU21623XXSP,2013-10-03 02:35:00,
2013-10-03 04:40:00,58.6,55.1,29.84,ENE,67,3.6,6.5,88,0.00,,,0.00,WUHU21623XXSP,2013-10-03 02:40:00,
2013-10-03 04:45:00,58.5,54.9,29.84,East,90,3.8,7.6,88,0.00,,,0.00,WUHU21623XXSP,2013-10-03 02:45:00,
2013-10-03 04:50:00,58.3,54.8,29.83,ENE,67,1.3,7.6,88,0.00,,,0.00,WUHU21623XXSP,2013-10-03 02:50:00,
2013-10-03 04:55:00,58.3,54.8,29.84,ENE,67,6.0,6.0,88,0.00,,,0.00,WUHU21623XXSP,2013-10-03 02:55:00,
2013-10-03 05:00:00,58.1,54.6,29.84,East,90,5.4,6.9,88,0.00,,,0.00,WUHU21623XXSP,2013-10-03 03:00:00,
2013-10-03 05:05:00,57.9,54.7,29.84,East,90,3.1,6.9,89,0.00,,,0.00,WUHU21623XXSP,2013-10-03 03:05:00,
2013-10-03 05:10:00,57.9,54.7,29.84,ENE,67,4.7,5.8,89,0.00,,,0.00,WUHU21623XXSP,2013-10-03 03:10:00,
2013-10-03 05:15:00,57.9,54.7,29.83,NE,45,2.9,8.1,89,0.00,,,0.00,WUHU21623XXSP,2013-10-03 03:15:00,
2013-10-03 05:20:00,57.9,54.7,29.84,ESE,112,3.8,8.1,89,0.00,,,0.00,WUHU21623XXSP,2013-10-03 03:20:00,
2013-10-03 05:25:00,57.7,54.5,29.83,East,90,3.8,8.1,89,0.00,,,0.00,WUHU21623XXSP,2013-10-03 03:25:00,
2013-10-03 05:29:00,57.7,54.5,29.83,ENE,67,10.7,10.7,89,0.00,,,0.00,WUHU21623XXSP,2013-10-03 03:29:00,
2013-10-03 05:34:00,57.7,54.5,29.83,NE,45,4.7,10.7,89,0.00,,,0.00,WUHU21623XXSP,2013-10-03 03:34:00,
2013-10-03 05:39:00,57.7,54.4,29.83,ESE,112,4.0,9.2,89,0.00,,,0.00,WUHU21623XXSP,2013-10-03 03:39:00,
2013-10-03 05:44:00,57.6,54.4,29.83,NE,45,4.0,9.2,89,0.00,,,0.00,WUHU21623XXSP,2013-10-03 03:44:00,
2013-10-03 05:49:00,57.6,54.4,29.83,NE,45,4.0,8.7,89,0.00,,,0.00,WUHU21623XXSP,2013-10-03 03:49:00,
2013-10-03 05:54:00,57.6,54.4,29.83,SE,135,3.8,7.4,89,0.00,,,0.00,WUHU21623XXSP,2013-10-03 03:54:00,
2013-10-03 05:59:00,57.4,54.2,29.83,ESE,112,4.3,6.0,89,0.00,,,0.00,WUHU21623XXSP,2013-10-03 03:59:00,
2013-10-03 06:01:00,57.4,54.2,29.83,ENE,67,5.1,6.0,89,0.00,,,0.00,WUHU21623XXSP,2013-10-03 04:01:00,
2013-10-03 06:02:00,57.4,54.2,29.83,ENE,67,6.3,6.3,89,0.00,,,0.00,WUHU21623XXSP,2013-10-03 04:02:00,
2013-10-03 06:07:00,57.4,54.2,29.83,ENE,67,3.8,6.3,89,0.00,,,0.00,WUHU21623XXSP,2013-10-03 04:07:00,
2013-10-03 06:12:00,57.6,54.4,29.83,ESE,112,5.4,8.3,89,0.00,,,0.00,WUHU21623XXSP,2013-10-03 04:12:00,
2013-10-03 06:17:00,57.7,54.2,29.83,ENE,67,5.6,8.3,88,0.00,,,0.00,WUHU21623XXSP,2013-10-03 04:17:00,
2013-10-03 06:22:00,57.7,54.2,29.83,ENE,67,4.5,8.7,88,0.00,,,0.00,WUHU21623XXSP,2013-10-03 04:22:00,
2013-10-03 06:27:00,57.7,54.2,29.83,ENE,67,6.0,9.2,88,0.00,,,0.00,WUHU21623XXSP,2013-10-03 04:27:00,
2013-10-03 06:32:00,57.7,54.2,29.83,East,90,3.1,9.2,88,0.00,,,0.00,WUHU21623XXSP,2013-10-03 04:32:00,
2013-10-03 06:37:00,57.6,53.7,29.83,ESE,112,4.0,7.8,87,0.00,,,0.00,WUHU21623XXSP,2013-10-03 04:37:00,
2013-10-03 06:42:00,57.6,53.7,29.82,SSE,157,6.0,7.8,87,0.00,,,0.00,WUHU21623XXSP,2013-10-03 04:42:00,
2013-10-03 06:47:00,57.6,53.7,29.83,ESE,112,3.6,7.2,87,0.00,,,0.00,WUHU21623XXSP,2013-10-03 04:47:00,
2013-10-03 06:52:00,57.6,53.7,29.82,ENE,67,6.7,6.7,87,0.00,,,0.00,WUHU21623XXSP,2013-10-03 04:52:00,
2013-10-03 06:57:00,57.6,53.7,29.82,NE,45,4.9,7.6,87,0.00,,,0.00,WUHU21623XXSP,2013-10-03 04:57:00,
2013-10-03 07:02:00,57.6,53.4,29.82,ESE,112,9.2,9.2,86,0.00,,,0.00,WUHU21623XXSP,2013-10-03 05:02:00,
2013-10-03 07:07:00,57.4,53.2,29.82,East,90,4.7,9.2,86,0.00,,,0.00,WUHU21623XXSP,2013-10-03 05:07:00,
2013-10-03 07:12:00,57.4,53.2,29.82,ESE,112,4.9,6.5,86,0.00,,,0.00,WUHU21623XXSP,2013-10-03 05:12:00,
2013-10-03 07:17:00,57.4,53.2,29.82,ENE,67,7.8,7.8,86,0.00,,,0.00,WUHU21623XXSP,2013-10-03 05:17:00,
2013-10-03 07:21:00,57.4,53.2,29.82,ENE,67,6.0,7.8,86,0.00,,,0.00,WUHU21623XXSP,2013-10-03 05:21:00,
2013-10-03 07:26:00,57.4,53.2,29.83,ENE,67,3.6,8.3,86,0.00,,,0.00,WUHU21623XXSP,2013-10-03 05:26:00,
2013-10-03 07:31:00,57.4,53.2,29.82,SSE,157,5.4,8.3,86,0.00,,,0.00,WUHU21623XXSP,2013-10-03 05:31:00,
2013-10-03 07:36:00,57.4,53.2,29.82,SE,135,3.4,10.1,86,0.00,,,0.00,WUHU21623XXSP,2013-10-03 05:36:00,
2013-10-03 07:41:00,57.4,53.2,29.82,ENE,67,5.4,10.1,86,0.00,,,0.00,WUHU21623XXSP,2013-10-03 05:41:00,
2013-10-03 07:46:00,57.4,53.2,29.81,East,90,3.4,7.6,86,0.00,,,0.00,WUHU21623XXSP,2013-10-03 05:46:00,
2013-10-03 07:51:00,57.4,53.2,29.81,ESE,112,7.6,7.6,86,0.00,,,0.00,WUHU21623XXSP,2013-10-03 05:51:00,
2013-10-03 07:56:00,57.2,53.0,29.82,ESE,112,6.9,7.8,86,0.00,,,0.00,WUHU21623XXSP,2013-10-03 05:56:00,
2013-10-03 08:01:00,57.0,52.8,29.82,ESE,112,7.8,7.8,86,0.00,,,0.00,WUHU21623XXSP,2013-10-03 06:01:00,
2013-10-03 08:06:00,57.0,52.8,29.82,ENE,67,6.9,8.3,86,0.00,,,0.00,WUHU21623XXSP,2013-10-03 06:06:00,
2013-10-03 08:11:00,57.0,52.8,29.82,ESE,112,4.7,8.3,86,0.00,,,0.00,WUHU21623XXSP,2013-10-03 06:11:00,
2013-10-03 08:16:00,57.0,52.8,29.82,East,90,3.8,7.2,86,0.00,,,0.00,WUHU21623XXSP,2013-10-03 06:16:00,
2013-10-03 08:21:00,57.0,52.8,29.82,East,90,5.8,7.2,86,0.00,,,0.00,WUHU21623XXSP,2013-10-03 06:21:00,
2013-10-03 08:26:00,56.8,52.7,29.81,East,90,3.4,6.7,86,0.00,,,0.00,WUHU21623XXSP,2013-10-03 06:26:00,
2013-10-03 08:31:00,56.8,52.7,29.82,ENE,67,6.3,9.4,86,0.00,,,0.00,WUHU21623XXSP,2013-10-03 06:31:00,
2013-10-03 08:36:00,56.8,52.7,29.82,East,90,6.5,9.4,86,0.00,,,0.00,WUHU21623XXSP,2013-10-03 06:36:00,
2013-10-03 08:41:00,57.0,52.8,29.82,NE,45,5.8,8.1,86,0.00,,,0.00,WUHU21623XXSP,2013-10-03 06:41:00,
2013-10-03 08:46:00,57.0,52.8,29.82,East,90,4.5,8.1,86,0.00,,,0.00,WUHU21623XXSP,2013-10-03 06:46:00,
2013-10-03 08:51:00,57.4,53.2,29.82,NE,45,6.5,6.9,86,0.00,,,0.00,WUHU21623XXSP,2013-10-03 06:51:00,
2013-10-03 08:56:00,57.4,53.2,29.82,East,90,3.8,7.6,86,0.00,,,0.00,WUHU21623XXSP,2013-10-03 06:56:00,
2013-10-03 09:01:00,57.6,53.1,29.81,ENE,67,8.9,8.9,85,0.00,,,0.00,WUHU21623XXSP,2013-10-03 07:01:00,
2013-10-03 09:06:00,57.7,53.2,29.81,East,90,6.7,8.9,85,0.00,,,0.00,WUHU21623XXSP,2013-10-03 07:06:00,
2013-10-03 09:11:00,57.7,53.2,29.81,ESE,112,5.6,7.6,85,0.00,,,0.00,WUHU21623XXSP,2013-10-03 07:11:00,
2013-10-03 09:16:00,57.9,53.4,29.81,East,90,8.1,8.5,85,0.00,,,0.00,WUHU21623XXSP,2013-10-03 07:16:00,
2013-10-03 09:21:00,58.1,53.6,29.81,ENE,67,5.6,8.5,85,0.00,,,0.00,WUHU21623XXSP,2013-10-03 07:21:00,
2013-10-03 09:26:00,58.3,53.5,29.81,SE,135,3.8,9.2,84,0.00,,,0.00,WUHU21623XXSP,2013-10-03 07:26:00,
2013-10-03 09:31:00,58.6,53.8,29.81,ENE,67,6.5,9.2,84,0.00,,,0.00,WUHU21623XXSP,2013-10-03 07:31:00,
2013-10-03 09:36:00,58.8,54.0,29.81,East,90,4.7,8.9,84,0.00,,,0.00,WUHU21623XXSP,2013-10-03 07:36:00,
2013-10-03 09:41:00,58.8,54.0,29.82,ESE,112,9.8,9.8,84,0.00,,,0.00,WUHU21623XXSP,2013-10-03 07:41:00,
2013-10-03 09:46:00,58.8,53.7,29.82,ESE,112,6.3,9.8,83,0.00,,,0.00,WUHU21623XXSP,2013-10-03 07:46:00,
2013-10-03 09:51:00,59.0,53.9,29.82,ESE,112,5.1,6.3,83,0.00,,,0.00,WUHU21623XXSP,2013-10-03 07:51:00,
2013-10-03 09:56:00,59.5,54.7,29.82,NE,45,2.0,6.7,84,0.00,,,0.00,WUHU21623XXSP,2013-10-03 07:56:00,
2013-10-03 10:01:00,59.7,54.9,29.82,ENE,67,4.5,7.4,84,0.00,,,0.00,WUHU21623XXSP,2013-10-03 08:01:00,
2013-10-03 10:06:00,59.9,54.8,29.81,ENE,67,0.9,7.4,83,0.00,,,0.00,WUHU21623XXSP,2013-10-03 08:06:00,
2013-10-03 10:11:00,60.1,54.9,29.82,East,90,4.0,9.8,83,0.00,,,0.00,WUHU21623XXSP,2013-10-03 08:11:00,
2013-10-03 10:16:00,60.4,55.3,29.81,NE,45,3.1,9.8,83,0.00,,,0.00,WUHU21623XXSP,2013-10-03 08:16:00,
2013-10-03 10:21:00,60.6,55.1,29.82,ENE,67,4.7,4.7,82,0.00,,,0.00,WUHU21623XXSP,2013-10-03 08:21:00,
2013-10-03 10:26:00,61.0,55.5,29.82,ENE,67,4.7,8.3,82,0.00,,,0.00,WUHU21623XXSP,2013-10-03 08:26:00,
2013-10-03 10:31:00,61.0,55.5,29.82,NE,45,4.0,8.3,82,0.00,,,0.00,WUHU21623XXSP,2013-10-03 08:31:00,
2013-10-03 10:36:00,61.3,55.8,29.82,ENE,67,3.6,6.7,82,0.00,,,0.00,WUHU21623XXSP,2013-10-03 08:36:00,
2013-10-03 10:41:00,61.5,55.7,29.82,ENE,67,3.8,11.0,81,0.00,,,0.00,WUHU21623XXSP,2013-10-03 08:41:00,
2013-10-03 10:46:00,61.5,56.0,29.82,ENE,67,6.7,11.0,82,0.00,,,0.00,WUHU21623XXSP,2013-10-03 08:46:00,
2013-10-03 10:51:00,61.9,56.0,29.82,ENE,67,4.7,9.6,81,0.00,,,0.00,WUHU21623XXSP,2013-10-03 08:51:00,
2013-10-03 10:56:00,61.9,56.0,29.82,ENE,67,3.6,11.9,81,0.00,,,0.00,WUHU21623XXSP,2013-10-03 08:56:00,
2013-10-03 11:01:00,62.4,56.6,29.82,ESE,112,3.8,11.9,82,0.00,,,0.00,WUHU21623XXSP,2013-10-03 09:01:00,
2013-10-03 11:06:00,62.4,56.8,29.82,ENE,67,4.7,6.9,82,0.00,,,0.00,WUHU21623XXSP,2013-10-03 09:06:00,
2013-10-03 11:11:00,62.8,56.8,29.82,East,90,3.6,8.5,81,0.00,,,0.00,WUHU21623XXSP,2013-10-03 09:11:00,
2013-10-03 11:16:00,63.0,57.0,29.82,ENE,67,11.4,11.4,81,0.00,,,0.00,WUHU21623XXSP,2013-10-03 09:16:00,
2013-10-03 11:21:00,63.3,57.4,29.81,ENE,67,3.8,11.4,81,0.00,,,0.00,WUHU21623XXSP,2013-10-03 09:21:00,
2013-10-03 11:26:00,63.7,57.7,29.82,ENE,67,5.4,5.6,81,0.00,,,0.00,WUHU21623XXSP,2013-10-03 09:26:00,
2013-10-03 11:31:00,64.0,58.1,29.81,NE,45,3.6,5.6,81,0.00,,,0.00,WUHU21623XXSP,2013-10-03 09:31:00,
2013-10-03 11:36:00,64.2,57.9,29.82,SE,135,3.8,6.3,80,0.00,,,0.00,WUHU21623XXSP,2013-10-03 09:36:00,
2013-10-03 11:41:00,64.6,58.3,29.82,ESE,112,4.3,6.3,80,0.00,,,0.00,WUHU21623XXSP,2013-10-03 09:41:00,
2013-10-03 11:46:00,64.9,59.0,29.82,ENE,67,4.0,6.3,81,0.00,,,0.00,WUHU21623XXSP,2013-10-03 09:46:00,
2013-10-03 11:51:00,65.5,59.2,29.82,SE,135,4.0,6.3,80,0.00,,,0.00,WUHU21623XXSP,2013-10-03 09:51:00,
2013-10-03 11:56:00,66.0,59.3,29.82,SE,135,2.2,4.0,79,0.00,,,0.00,WUHU21623XXSP,2013-10-03 09:56:00,
2013-10-03 12:01:00,66.4,59.7,29.83,ESE,112,6.5,6.5,79,0.00,,,0.00,WUHU21623XXSP,2013-10-03 10:01:00,
2013-10-03 12:06:00,66.2,59.1,29.83,SE,135,2.0,7.2,78,0.00,,,0.00,WUHU21623XXSP,2013-10-03 10:06:00,
2013-10-03 12:11:00,66.6,59.9,29.83,SSE,157,4.9,8.5,79,0.00,,,0.00,WUHU21623XXSP,2013-10-03 10:11:00,
2013-10-03 12:16:00,66.7,60.1,29.83,SE,135,2.0,8.5,79,0.00,,,0.00,WUHU21623XXSP,2013-10-03 10:16:00,
2013-10-03 12:21:00,66.9,59.9,29.82,SE,135,4.7,6.3,78,0.00,,,0.00,WUHU21623XXSP,2013-10-03 10:21:00,
2013-10-03 12:26:00,67.6,60.6,29.83,SSE,157,1.6,6.3,79,0.00,,,0.00,WUHU21623XXSP,2013-10-03 10:26:00,
2013-10-03 12:31:00,68.2,61.5,29.83,ESE,112,2.2,4.7,79,0.00,,,0.00,WUHU21623XXSP,2013-10-03 10:31:00,
2013-10-03 12:36:00,68.7,61.2,29.83,SSE,157,4.7,7.8,77,0.00,,,0.00,WUHU21623XXSP,2013-10-03 10:36:00,
2013-10-03 12:41:00,69.4,61.9,29.83,SSE,157,2.2,7.8,77,0.00,,,0.00,WUHU21623XXSP,2013-10-03 10:41:00,
2013-10-03 12:46:00,69.6,62.0,29.83,SSE,157,2.2,7.4,77,0.00,,,0.00,WUHU21623XXSP,2013-10-03 10:46:00,
2013-10-03 12:51:00,70.0,62.0,29.83,South,180,6.5,8.3,76,0.00,,,0.00,WUHU21623XXSP,2013-10-03 10:51:00,
2013-10-03 12:56:00,70.0,62.0,29.83,SSE,157,3.6,10.5,76,0.00,,,0.00,WUHU21623XXSP,2013-10-03 10:56:00,
2013-10-03 13:01:00,69.6,61.6,29.83,SE,135,7.6,10.5,76,0.00,,,0.00,WUHU21623XXSP,2013-10-03 11:01:00,
2013-10-03 13:06:00,69.6,62.0,29.83,SE,135,5.8,8.5,77,0.00,,,0.00,WUHU21623XXSP,2013-10-03 11:06:00,
2013-10-03 13:11:00,69.6,62.0,29.83,ESE,112,3.1,7.4,77,0.00,,,0.00,WUHU21623XXSP,2013-10-03 11:11:00,
2013-10-03 13:16:00,70.0,62.4,29.82,South,180,4.7,8.1,77,0.00,,,0.00,WUHU21623XXSP,2013-10-03 11:16:00,
2013-10-03 13:21:00,70.3,62.7,29.83,SE,135,6.7,8.1,77,0.00,,,0.00,WUHU21623XXSP,2013-10-03 11:21:00,
2013-10-03 13:26:00,70.5,62.9,29.82,SSE,157,4.5,6.7,77,0.00,,,0.00,WUHU21623XXSP,2013-10-03 11:26:00,
2013-10-03 13:31:00,70.5,63.3,29.83,South,180,3.6,4.5,78,0.00,,,0.00,WUHU21623XXSP,2013-10-03 11:31:00,
2013-10-03 13:36:00,70.7,63.5,29.82,SSE,157,0.0,5.8,78,0.00,,,0.00,WUHU21623XXSP,2013-10-03 11:36:00,
2013-10-03 13:41:00,70.9,63.6,29.83,South,180,3.1,5.8,78,0.00,,,0.00,WUHU21623XXSP,2013-10-03 11:41:00,
2013-10-03 13:46:00,71.1,63.4,29.82,SE,135,11.6,11.6,77,0.00,,,0.00,WUHU21623XXSP,2013-10-03 11:46:00,
2013-10-03 13:51:00,71.2,63.6,29.83,SSE,157,2.2,11.6,77,0.00,,,0.00,WUHU21623XXSP,2013-10-03 11:51:00,
2013-10-03 13:56:00,71.4,63.8,29.83,East,90,2.9,8.1,77,0.00,,,0.00,WUHU21623XXSP,2013-10-03 11:56:00,
2013-10-03 14:01:00,71.4,63.8,29.82,South,180,6.5,6.5,77,0.00,,,0.00,WUHU21623XXSP,2013-10-03 12:01:00,
2013-10-03 14:06:00,71.4,63.4,29.83,West,270,1.1,7.6,76,0.00,,,0.00,WUHU21623XXSP,2013-10-03 12:06:00,
2013-10-03 14:11:00,71.4,63.8,29.82,SSE,157,2.9,7.6,77,0.00,,,0.00,WUHU21623XXSP,2013-10-03 12:11:00,
2013-10-03 14:16:00,71.6,64.0,29.82,SE,135,2.5,5.1,77,0.00,,,0.00,WUHU21623XXSP,2013-10-03 12:16:00,
2013-10-03 14:21:00,71.8,64.2,29.82,SE,135,0.0,5.1,77,0.00,,,0.00,WUHU21623XXSP,2013-10-03 12:21:00,
2013-10-03 14:26:00,71.8,64.2,29.83,SSE,157,1.6,8.9,77,0.00,,,0.00,WUHU21623XXSP,2013-10-03 12:26:00,
2013-10-03 14:31:00,72.0,64.3,29.83,SSE,157,1.8,8.9,77,0.00,,,0.00,WUHU21623XXSP,2013-10-03 12:31:00,
2013-10-03 14:36:00,72.1,64.5,29.83,SE,135,2.2,4.3,77,0.00,,,0.00,WUHU21623XXSP,2013-10-03 12:36:00,
2013-10-03 14:41:00,73.2,65.6,29.83,SE,135,2.5,4.5,76,0.00,,,0.00,WUHU21623XXSP,2013-10-03 12:41:00,
2013-10-03 14:46:00,73.9,65.5,29.83,SSE,157,2.5,4.5,75,0.00,,,0.00,WUHU21623XXSP,2013-10-03 12:46:00,
2013-10-03 14:51:00,73.6,64.8,29.82,SSE,157,6.0,6.0,74,0.00,,,0.00,WUHU21623XXSP,2013-10-03 12:51:00,
2013-10-03 14:56:00,73.2,64.9,29.82,NW,315,0.0,6.0,75,0.00,,,0.00,WUHU21623XXSP,2013-10-03 12:56:00,
2013-10-03 15:01:00,72.9,64.7,29.82,SE,135,4.5,5.4,75,0.00,,,0.00,WUHU21623XXSP,2013-10-03 13:01:00,
2013-10-03 15:06:00,72.9,64.9,29.82,South,180,3.4,5.4,76,0.00,,,0.00,WUHU21623XXSP,2013-10-03 13:06:00,
2013-10-03 15:11:00,73.0,65.0,29.81,SSE,157,2.9,4.5,76,0.00,,,0.00,WUHU21623XXSP,2013-10-03 13:11:00,
2013-10-03 15:16:00,73.0,65.0,29.80,East,90,2.0,6.5,76,0.00,,,0.00,WUHU21623XXSP,2013-10-03 13:16:00,
2013-10-03 15:21:00,73.0,65.0,29.80,SE,135,4.9,6.5,76,0.00,,,0.00,WUHU21623XXSP,2013-10-03 13:21:00,
2013-10-03 15:26:00,73.0,65.0,29.80,East,90,2.2,5.1,76,0.00,,,0.00,WUHU21623XXSP,2013-10-03 13:26:00,
2013-10-03 15:31:00,73.0,65.0,29.81,SSE,157,4.7,5.1,76,0.00,,,0.00,WUHU21623XXSP,2013-10-03 13:31:00,
2013-10-03 15:36:00,73.0,65.4,29.80,East,90,3.6,5.8,77,0.00,,,0.00,WUHU21623XXSP,2013-10-03 13:36:00,
2013-10-03 15:41:00,73.0,65.0,29.81,ESE,112,3.8,6.9,76,0.00,,,0.00,WUHU21623XXSP,2013-10-03 13:41:00,
2013-10-03 15:46:00,73.0,65.4,29.81,SE,135,0.0,6.9,77,0.00,,,0.00,WUHU21623XXSP,2013-10-03 13:46:00,
2013-10-03 15:51:00,73.0,65.4,29.81,SE,135,2.9,5.8,77,0.00,,,0.00,WUHU21623XXSP,2013-10-03 13:51:00,
2013-10-03 15:56:00,73.0,65.4,29.82,SSE,157,8.7,8.7,77,0.00,,,0.00,WUHU21623XXSP,2013-10-03 13:56:00,
2013-10-03 16:01:00,73.0,65.4,29.82,SE,135,3.8,8.7,77,0.00,,,0.00,WUHU21623XXSP,2013-10-03 14:01:00,
2013-10-03 16:06:00,73.2,65.6,29.82,ESE,112,2.5,6.9,77,0.00,,,0.00,WUHU21623XXSP,2013-10-03 14:06:00,
2013-10-03 16:11:00,73.0,65.4,29.81,ESE,112,6.3,6.9,77,0.00,,,0.00,WUHU21623XXSP,2013-10-03 14:11:00,
2013-10-03 16:15:00,73.2,65.6,29.81,ESE,112,0.0,6.3,77,0.00,,,0.00,WUHU21623XXSP,2013-10-03 14:15:00,
2013-10-03 16:20:00,73.0,65.4,29.80,ESE,112,0.0,4.3,77,0.00,,,0.00,WUHU21623XXSP,2013-10-03 14:20:00,
2013-10-03 16:25:00,72.9,65.6,29.81,SSE,157,2.5,4.3,78,0.00,,,0.00,WUHU21623XXSP,2013-10-03 14:25:00,
2013-10-03 16:30:00,72.5,65.6,29.80,SE,135,1.6,3.4,79,0.00,,,0.00,WUHU21623XXSP,2013-10-03 14:30:00,
2013-10-03 16:35:00,72.1,66.0,29.80,SSE,157,4.0,4.0,81,0.00,,,0.00,WUHU21623XXSP,2013-10-03 14:35:00,
2013-10-03 16:40:00,71.8,65.6,29.80,SE,135,1.8,4.5,81,0.00,,,0.00,WUHU21623XXSP,2013-10-03 14:40:00,
2013-10-03 16:45:00,71.8,66.3,29.80,ESE,112,0.0,4.5,83,0.02,,,0.02,WUHU21623XXSP,2013-10-03 14:45:00,
2013-10-03 16:50:00,71.4,66.0,29.80,ESE,112,1.6,2.7,83,0.02,,,0.02,WUHU21623XXSP,2013-10-03 14:50:00,
2013-10-03 16:55:00,71.2,65.8,29.80,SE,135,1.3,2.5,83,0.02,,,0.02,WUHU21623XXSP,2013-10-03 14:55:00,
2013-10-03 17:00:00,70.9,65.8,29.80,South,180,0.0,2.5,84,0.02,,,0.02,WUHU21623XXSP,2013-10-03 15:00:00,
2013-10-03 17:05:00,70.9,66.1,29.80,SSE,157,0.0,1.1,85,0.02,,,0.02,WUHU21623XXSP,2013-10-03 15:05:00,
2013-10-03 17:10:00,70.9,66.1,29.80,SE,135,2.9,2.9,85,0.02,,,0.02,WUHU21623XXSP,2013-10-03 15:10:00,
2013-10-03 17:15:00,70.9,66.1,29.80,SE,135,3.6,3.6,85,0.02,,,0.02,WUHU21623XXSP,2013-10-03 15:15:00,
2013-10-03 17:20:00,71.1,66.3,29.80,SE,135,1.1,4.3,85,0.02,,,0.02,WUHU21623XXSP,2013-10-03 15:20:00,
2013-10-03 17:25:00,71.2,66.5,29.80,East,90,2.5,4.3,85,0.02,,,0.02,WUHU21623XXSP,2013-10-03 15:25:00,
2013-10-03 17:30:00,71.4,66.7,29.80,ESE,112,0.0,2.7,85,0.02,,,0.02,WUHU21623XXSP,2013-10-03 15:30:00,
2013-10-03 17:35:00,72.0,66.8,29.80,SE,135,2.5,2.7,84,0.02,,,0.02,WUHU21623XXSP,2013-10-03 15:35:00,
2013-10-03 17:40:00,72.1,67.0,29.80,ESE,112,0.0,3.4,84,0.00,,,0.02,WUHU21623XXSP,2013-10-03 15:40:00,
2013-10-03 17:45:00,72.1,66.7,29.80,ESE,112,0.0,3.4,83,0.00,,,0.02,WUHU21623XXSP,2013-10-03 15:45:00,
2013-10-03 17:50:00,72.3,67.2,29.80,South,180,0.0,2.5,84,0.00,,,0.02,WUHU21623XXSP,2013-10-03 15:50:00,
2013-10-03 17:55:00,72.3,67.2,29.81,SE,135,1.3,2.0,84,0.00,,,0.02,WUHU21623XXSP,2013-10-03 15:55:00,
2013-10-03 18:00:00,72.0,67.0,29.81,SE,135,2.0,5.4,84,0.00,,,0.02,WUHU21623XXSP,2013-10-03 16:00:00,
2013-10-03 18:05:00,72.0,66.8,29.81,SSE,157,1.1,5.4,84,0.00,,,0.02,WUHU21623XXSP,2013-10-03 16:05:00,
2013-10-03 18:10:00,71.8,66.7,29.81,SE,135,1.8,3.1,84,0.00,,,0.02,WUHU21623XXSP,2013-10-03 16:10:00,
2013-10-03 18:15:00,71.6,66.5,29.81,South,180,1.6,3.1,84,0.00,,,0.02,WUHU21623XXSP,2013-10-03 16:15:00,
2013-10-03 18:20:00,71.6,66.5,29.81,SSE,157,2.2,3.1,84,0.00,,,0.02,WUHU21623XXSP,2013-10-03 16:20:00,
2013-10-03 18:25:00,71.4,66.3,29.81,SSE,157,0.0,3.1,84,0.00,,,0.02,WUHU21623XXSP,2013-10-03 16:25:00,
2013-10-03 18:30:00,71.4,66.3,29.81,SE,135,1.1,2.9,84,0.00,,,0.02,WUHU21623XXSP,2013-10-03 16:30:00,
2013-10-03 18:35:00,71.4,66.3,29.81,SE,135,3.4,6.0,84,0.00,,,0.02,WUHU21623XXSP,2013-10-03 16:35:00,
2013-10-03 18:40:00,71.4,66.0,29.81,SE,135,0.0,6.0,83,0.00,,,0.02,WUHU21623XXSP,2013-10-03 16:40:00,
2013-10-03 18:45:00,71.4,66.0,29.81,SSE,157,2.5,5.4,83,0.00,,,0.02,WUHU21623XXSP,2013-10-03 16:45:00,
2013-10-03 18:50:00,71.4,66.0,29.81,SE,135,4.7,5.8,83,0.00,,,0.02,WUHU21623XXSP,2013-10-03 16:50:00,
2013-10-03 18:55:00,71.4,66.0,29.81,SE,135,3.6,5.8,83,0.00,,,0.02,WUHU21623XXSP,2013-10-03 16:55:00,
2013-10-03 19:00:00,71.4,66.0,29.81,SSE,157,0.0,6.3,83,0.00,,,0.02,WUHU21623XXSP,2013-10-03 17:00:00,
2013-10-03 19:05:00,71.2,65.8,29.81,SE,135,1.1,6.3,83,0.00,,,0.02,WUHU21623XXSP,2013-10-03 17:05:00,
2013-10-03 19:10:00,71.2,65.8,29.81,SE,135,3.8,3.8,83,0.00,,,0.02,WUHU21623XXSP,2013-10-03 17:10:00,
2013-10-03 19:15:00,71.1,65.6,29.81,SSE,157,0.0,4.3,83,0.00,,,0.02,WUHU21623XXSP,2013-10-03 17:15:00,
2013-10-03 19:20:00,70.9,65.4,29.81,ESE,112,2.2,4.3,83,0.00,,,0.02,WUHU21623XXSP,2013-10-03 17:20:00,
2013-10-03 19:25:00,70.9,65.4,29.81,SE,135,1.1,3.6,83,0.00,,,0.02,WUHU21623XXSP,2013-10-03 17:25:00,
2013-10-03 19:30:00,70.7,65.2,29.81,ESE,112,0.0,2.5,83,0.00,,,0.02,WUHU21623XXSP,2013-10-03 17:30:00,
2013-10-03 19:35:00,70.7,65.2,29.81,ESE,112,0.0,3.8,83,0.00,,,0.02,WUHU21623XXSP,2013-10-03 17:35:00,
2013-10-03 19:40:00,70.5,65.1,29.82,ESE,112,3.6,4.0,83,0.00,,,0.02,WUHU21623XXSP,2013-10-03 17:40:00,
2013-10-03 19:45:00,70.5,65.1,29.82,SE,135,2.0,4.0,83,0.00,,,0.02,WUHU21623XXSP,2013-10-03 17:45:00,
2013-10-03 19:50:00,70.3,64.5,29.82,SE,135,0.0,2.5,82,0.00,,,0.02,WUHU21623XXSP,2013-10-03 17:50:00,
2013-10-03 19:55:00,70.0,64.5,29.82,East,90,2.9,2.9,83,0.00,,,0.02,WUHU21623XXSP,2013-10-03 17:55:00,
2013-10-03 20:00:00,69.8,64.3,29.82,East,90,1.8,2.9,83,0.00,,,0.02,WUHU21623XXSP,2013-10-03 18:00:00,
2013-10-03 20:05:00,69.6,64.5,29.82,ENE,67,0.9,2.2,84,0.00,,,0.02,WUHU21623XXSP,2013-10-03 18:05:00,
2013-10-03 20:10:00,69.4,64.3,29.82,ESE,112,1.3,2.2,84,0.00,,,0.02,WUHU21623XXSP,2013-10-03 18:10:00,
2013-10-03 20:15:00,69.3,64.2,29.82,SE,135,2.0,3.6,84,0.00,,,0.02,WUHU21623XXSP,2013-10-03 18:15:00,
2013-10-03 20:20:00,69.4,64.3,29.81,ESE,112,2.2,3.6,84,0.00,,,0.02,WUHU21623XXSP,2013-10-03 18:20:00,
2013-10-03 20:25:00,69.4,64.3,29.82,ESE,112,2.9,3.1,84,0.00,,,0.02,WUHU21623XXSP,2013-10-03 18:25:00,
2013-10-03 20:30:00,69.4,64.3,29.82,ESE,112,2.5,2.9,84,0.00,,,0.02,WUHU21623XXSP,2013-10-03 18:30:00,
2013-10-03 20:35:00,69.3,64.2,29.82,ESE,112,0.0,2.5,84,0.00,,,0.02,WUHU21623XXSP,2013-10-03 18:35:00,
2013-10-03 20:40:00,69.1,64.0,29.82,East,90,1.6,2.2,84,0.00,,,0.02,WUHU21623XXSP,2013-10-03 18:40:00,
2013-10-03 20:45:00,69.3,64.2,29.82,ESE,112,3.1,3.1,84,0.00,,,0.02,WUHU21623XXSP,2013-10-03 18:45:00,
2013-10-03 20:50:00,69.4,64.3,29.82,ESE,112,2.0,3.8,84,0.00,,,0.02,WUHU21623XXSP,2013-10-03 18:50:00,
2013-10-03 20:55:00,69.4,64.3,29.83,SSW,202,1.6,3.8,84,0.00,,,0.02,WUHU21623XXSP,2013-10-03 18:55:00,
2013-10-03 21:00:00,69.6,64.2,29.83,SSW,202,0.0,6.0,83,0.00,,,0.02,WUHU21623XXSP,2013-10-03 19:00:00,
2013-10-03 21:05:00,69.6,64.2,29.83,SSW,202,0.0,6.0,83,0.00,,,0.02,WUHU21623XXSP,2013-10-03 19:05:00,
2013-10-03 21:10:00,69.6,64.2,29.83,SW,225,1.6,4.0,83,0.00,,,0.02,WUHU21623XXSP,2013-10-03 19:10:00,
2013-10-03 21:15:00,69.4,64.3,29.83,SSE,157,0.0,4.0,84,0.00,,,0.02,WUHU21623XXSP,2013-10-03 19:15:00,
2013-10-03 21:20:00,69.3,64.2,29.83,SE,135,1.3,2.5,84,0.00,,,0.02,WUHU21623XXSP,2013-10-03 19:20:00,
2013-10-03 21:25:00,69.1,64.3,29.83,SSW,202,0.0,3.6,85,0.00,,,0.02,WUHU21623XXSP,2013-10-03 19:25:00,
2013-10-03 21:30:00,68.7,64.3,29.83,SSE,157,3.1,3.6,86,0.00,,,0.02,WUHU21623XXSP,2013-10-03 19:30:00,
2013-10-03 21:35:00,68.5,64.1,29.83,SE,135,2.7,3.1,86,0.00,,,0.02,WUHU21623XXSP,2013-10-03 19:35:00,
2013-10-03 21:40:00,68.4,64.0,29.83,ESE,112,2.9,2.9,86,0.00,,,0.02,WUHU21623XXSP,2013-10-03 19:40:00,
2013-10-03 21:45:00,68.4,64.3,29.83,SSE,157,2.0,3.1,87,0.00,,,0.02,WUHU21623XXSP,2013-10-03 19:45:00,
2013-10-03 21:50:00,68.2,64.1,29.83,SSE,157,0.0,3.1,87,0.00,,,0.02,WUHU21623XXSP,2013-10-03 19:50:00,
2013-10-03 21:55:00,68.2,64.1,29.84,SE,135,0.0,2.2,87,0.00,,,0.02,WUHU21623XXSP,2013-10-03 19:55:00,
2013-10-03 22:00:00,68.2,64.1,29.84,SE,135,2.5,2.7,87,0.00,,,0.02,WUHU21623XXSP,2013-10-03 20:00:00,
2013-10-03 22:05:00,68.4,64.3,29.83,ESE,112,3.8,4.5,87,0.00,,,0.02,WUHU21623XXSP,2013-10-03 20:05:00,
2013-10-03 22:10:00,68.4,64.3,29.84,ESE,112,2.5,4.5,87,0.00,,,0.02,WUHU21623XXSP,2013-10-03 20:10:00,
2013-10-03 22:15:00,68.4,64.0,29.84,SSE,157,4.0,4.0,86,0.00,,,0.02,WUHU21623XXSP,2013-10-03 20:15:00,
2013-10-03 22:20:00,68.4,64.3,29.83,SE,135,2.5,4.0,87,0.00,,,0.02,WUHU21623XXSP,2013-10-03 20:20:00,
2013-10-03 22:25:00,68.2,63.8,29.83,South,180,1.8,2.5,86,0.00,,,0.02,WUHU21623XXSP,2013-10-03 20:25:00,
2013-10-03 22:30:00,68.2,64.1,29.84,SE,135,2.2,2.5,87,0.00,,,0.02,WUHU21623XXSP,2013-10-03 20:30:00,
2013-10-03 22:35:00,68.2,64.1,29.83,SE,135,2.7,2.9,87,0.00,,,0.02,WUHU21623XXSP,2013-10-03 20:35:00,
2013-10-03 22:40:00,68.2,64.1,29.84,South,180,2.7,2.9,87,0.00,,,0.02,WUHU21623XXSP,2013-10-03 20:40:00,
2013-10-03 22:45:00,68.2,64.1,29.85,SSW,202,3.1,3.1,87,0.00,,,0.02,WUHU21623XXSP,2013-10-03 20:45:00,
2013-10-03 22:50:00,68.2,64.1,29.85,SSE,157,0.0,9.2,87,0.00,,,0.02,WUHU21623XXSP,2013-10-03 20:50:00,
2013-10-03 22:55:00,68.2,64.1,29.85,SE,135,2.2,9.2,87,0.02,,,0.02,WUHU21623XXSP,2013-10-03 20:55:00,
2013-10-03 23:00:00,67.8,64.1,29.85,SE,135,0.0,3.8,88,0.02,,,0.04,WUHU21623XXSP,2013-10-03 21:00:00,
2013-10-03 23:05:00,67.8,64.1,29.85,SSW,202,2.0,5.4,88,0.02,,,0.04,WUHU21623XXSP,2013-10-03 21:05:00,
2013-10-03 23:10:00,67.6,64.3,29.86,SSW,202,0.0,5.4,89,0.02,,,0.04,WUHU21623XXSP,2013-10-03 21:10:00,
2013-10-03 23:15:00,67.6,64.3,29.86,South,180,2.2,2.2,89,0.02,,,0.04,WUHU21623XXSP,2013-10-03 21:15:00,
2013-10-03 23:20:00,67.6,64.6,29.85,SE,135,0.0,2.2,90,0.02,,,0.04,WUHU21623XXSP,2013-10-03 21:20:00,
2013-10-03 23:25:00,67.5,64.6,29.85,ENE,67,0.0,1.6,90,0.02,,,0.04,WUHU21623XXSP,2013-10-03 21:25:00,
2013-10-03 23:30:00,67.3,64.2,29.85,ENE,67,0.9,0.9,90,0.02,,,0.04,WUHU21623XXSP,2013-10-03 21:30:00,
2013-10-03 23:35:00,67.1,64.0,29.85,ESE,112,1.3,3.4,90,0.02,,,0.04,WUHU21623XXSP,2013-10-03 21:35:00,
2013-10-03 23:40:00,67.1,64.0,29.85,ESE,112,2.0,3.4,90,0.02,,,0.04,WUHU21623XXSP,2013-10-03 21:40:00,
2013-10-03 23:45:00,67.1,64.0,29.84,East,90,0.0,2.9,90,0.02,,,0.04,WUHU21623XXSP,2013-10-03 21:45:00,
2013-10-03 23:50:00,66.9,63.9,29.85,SE,135,0.0,2.9,90,0.02,,,0.04,WUHU21623XXSP,2013-10-03 21:50:00,
2013-10-03 23:55:00,66.9,64.2,29.84,SE,135,0.0,2.9,91,0.00,,,0.04,WUHU21623XXSP,2013-10-03 21:55:00,